Teasdale, Utah
Current Conditions -  °F | °C
As of 6:53 AM on Friday 19 Dec 2014 (Local Time) from KBCE Reporting Station
Clear Clear  
Wind Chill: -7°   Ceiling: Unl
Heat Index:   Visibility: 10mi
Dew Point:   Wind: 12mph
Humidity: 87%   Direction: 270°W
Pressure: 30.22"   Gusts: NA
Location:  38.29°N, 111.48°W
Report Text: KBCE 191353Z AUTO 27010KT 10SM CLR M13/M15 A3022 RMK AO2 SLP260 T11331150
Loading
Personal Weather Stations






























Interactive Weather Map New forecast layout! Learn more

10-Day Weather Forecast

Advertisements
Track Severe Weather on mobile